Time;durP1;ratioP1;P1;durP2;ratioP2;P2;SDS_P1;SDS_P2;PMS_P1;PMS_P2;Temp;Humidity;BMP_temperature;BMP_pressure;BME280_temperature;BME280_humidity;BME280_pressure;Samples;Min_cycle;Max_cycle;Signal;HPM_P1;HPM_P2
2022/08/10 00:00:38;;;;;;;2.50;1.83;;;;;;;17.87;51.09;100987.31;10502453;28;20552;-72
2022/08/10 00:05:40;;;;;;;2.55;1.70;;;;;;;17.79;50.98;100980.63;10501798;28;20139;-70
2022/08/10 00:10:45;;;;;;;2.67;1.73;;;;;;;17.77;50.94;100980.72;10502992;28;20045;-71
2022/08/10 00:15:47;;;;;;;2.53;1.88;;;;;;;17.60;51.76;100983.25;10484376;28;20040;-70
2022/08/10 00:20:55;;;;;;;3.67;1.80;;;;;;;17.46;51.80;100975.06;10502515;28;20068;-70
2022/08/10 00:25:57;;;;;;;2.83;1.45;;;;;;;17.50;51.78;100979.31;10483106;28;20048;-69
2022/08/10 00:30:58;;;;;;;3.42;1.50;;;;;;;17.60;51.88;100980.59;10502029;28;20043;-69
2022/08/10 00:36:00;;;;;;;2.45;1.52;;;;;;;17.48;51.62;100989.13;10501719;28;20032;-69
2022/08/10 00:41:02;;;;;;;3.25;1.70;;;;;;;17.34;52.25;100987.09;10501254;28;20048;-70
2022/08/10 00:46:04;;;;;;;1.80;1.50;;;;;;;17.20;52.90;100981.53;10500668;28;20480;-70
2022/08/10 00:51:05;;;;;;;2.60;1.80;;;;;;;17.10;52.96;100981.94;10500336;28;20053;-69
2022/08/10 00:56:08;;;;;;;2.97;1.83;;;;;;;17.28;53.13;100985.56;10500051;28;20450;-70
2022/08/10 01:01:30;;;;;;;4.38;2.13;;;;;;;16.98;53.31;100982.47;10500029;28;20446;-70
2022/08/10 01:07:12;;;;;;;3.03;1.95;;;;;;;16.82;53.84;100978.72;10499466;28;20053;-70
2022/08/10 01:12:33;;;;;;;2.47;1.80;;;;;;;16.57;54.72;100985.06;10511488;23;20040;-69
2022/08/10 01:18:27;;;;;;;3.33;1.80;;;;;;;16.33;55.50;100980.72;10459117;28;20498;-69
2022/08/10 01:23:49;;;;;;;1.90;1.70;;;;;;;16.40;55.38;100980.44;10448125;28;20064;-69
2022/08/10 01:29:29;;;;;;;2.47;1.52;;;;;;;16.60;54.85;100969.00;10440624;28;20041;-69
2022/08/10 01:34:48;;;;;;;3.63;2.17;;;;;;;16.77;54.37;100980.72;10458808;28;20063;-69
2022/08/10 01:39:56;;;;;;;3.90;2.05;;;;;;;16.38;55.07;100978.78;10458423;28;20041;-69
2022/08/10 01:45:04;;;;;;;2.65;2.17;;;;;;;16.37;55.39;100979.69;10457336;28;20052;-69
2022/08/10 01:50:28;;;;;;;2.83;2.13;;;;;;;16.29;55.43;100982.69;10458042;28;20037;-70
2022/08/10 01:55:32;;;;;;;4.05;2.17;;;;;;;16.13;56.04;100989.50;10438913;28;20052;-69
2022/08/10 02:00:37;;;;;;;3.80;2.25;;;;;;;15.78;57.54;100980.28;10457538;28;20470;-70
2022/08/10 02:05:43;;;;;;;3.60;1.67;;;;;;;15.78;57.58;100985.56;10457857;28;20123;-69
2022/08/10 02:10:46;;;;;;;2.42;2.03;;;;;;;16.10;56.98;100998.44;10457147;28;20055;-70
2022/08/10 02:15:51;;;;;;;3.15;1.90;;;;;;;15.71;57.42;100990.22;10457018;28;20063;-70
2022/08/10 02:21:05;;;;;;;2.40;1.85;;;;;;;15.82;57.63;100995.13;10456802;28;20049;-70
2022/08/10 02:26:09;;;;;;;4.32;2.40;;;;;;;15.56;58.33;100989.00;10456832;28;20485;-69
2022/08/10 02:31:14;;;;;;;2.33;1.90;;;;;;;15.52;58.33;100991.81;10438595;28;20037;-69
2022/08/10 02:36:17;;;;;;;2.85;2.47;;;;;;;15.72;58.03;100985.81;10456260;28;20485;-69
2022/08/10 02:41:45;;;;;;;3.75;2.05;;;;;;;15.57;58.14;100981.91;10457407;28;20060;-69
2022/08/10 02:47:44;;;;;;;2.88;1.92;;;;;;;15.25;59.43;100985.75;10459091;28;20037;-69
2022/08/10 02:53:04;;;;;;;4.72;2.20;;;;;;;15.31;59.57;100988.16;10446225;28;20056;-69
2022/08/10 02:58:10;;;;;;;3.28;2.55;;;;;;;15.54;58.82;100990.84;10447091;28;20478;-69
2022/08/10 03:03:25;;;;;;;2.95;2.75;;;;;;;15.56;58.12;100989.00;10463700;28;20099;-69
2022/08/10 03:08:32;;;;;;;3.30;2.38;;;;;;;15.46;58.59;100989.41;10463397;28;20124;-68
2022/08/10 03:13:34;;;;;;;;;;;;;;;15.24;59.08;100989.31;10463589;28;20052;-68
2022/08/10 03:18:37;;;;;;;3.88;2.65;;;;;;;14.89;60.21;100986.97;10463097;28;19928;-68
2022/08/10 03:23:41;;;;;;;3.05;2.75;;;;;;;14.74;61.26;100992.81;10462489;28;20048;-69
2022/08/10 03:28:43;;;;;;;4.95;2.80;;;;;;;15.05;60.55;100994.38;10462494;28;20037;-69
2022/08/10 03:33:46;;;;;;;4.82;2.60;;;;;;;15.11;60.29;100984.44;10461729;28;20408;-69
2022/08/10 03:38:50;;;;;;;3.38;2.90;;;;;;;15.27;59.25;100992.72;10462284;28;20068;-69
2022/08/10 03:43:53;;;;;;;3.08;2.13;;;;;;;15.18;59.15;101005.41;10462613;28;20600;-69
2022/08/10 03:48:59;;;;;;;3.33;2.80;;;;;;;15.30;58.92;100999.69;10462625;28;20440;-69
2022/08/10 03:54:02;;;;;;;2.95;2.55;;;;;;;15.10;59.11;101003.91;10443645;28;20478;-69
2022/08/10 03:59:10;;;;;;;4.45;3.17;;;;;;;15.05;59.70;101005.84;10443459;28;20037;-69
2022/08/10 04:04:12;;;;;;;2.58;2.38;;;;;;;15.19;59.25;101008.03;10461953;28;20581;-69
2022/08/10 04:09:28;;;;;;;3.65;2.50;;;;;;;15.13;59.61;101011.72;10460971;28;20045;-69
2022/08/10 04:14:50;;;;;;;3.50;2.33;;;;;;;15.30;59.55;101026.16;10446491;28;20041;-69
2022/08/10 04:19:56;;;;;;;4.45;2.60;;;;;;;15.29;59.75;101025.31;10461109;28;20505;-69
2022/08/10 04:25:02;;;;;;;4.18;2.65;;;;;;;15.42;58.69;101035.47;10460889;28;20041;-69
2022/08/10 04:30:04;;;;;;;4.78;2.40;;;;;;;15.53;58.63;101038.59;10443604;28;20041;-69
2022/08/10 04:35:09;;;;;;;7.68;3.15;;;;;;;15.62;58.52;101031.16;10459939;28;20138;-69
2022/08/10 04:40:11;;;;;;;3.45;2.30;;;;;;;15.78;57.96;101031.50;10460065;28;20099;-69
2022/08/10 04:45:32;;;;;;;3.75;3.10;;;;;;;15.81;57.77;101028.75;10460862;28;20467;-69
2022/08/10 04:50:51;;;;;;;6.25;3.35;;;;;;;15.70;58.51;101024.75;10459665;28;20045;-69
2022/08/10 04:55:53;;;;;;;7.63;3.47;;;;;;;15.62;58.58;101032.94;10460448;28;20091;-69
2022/08/10 05:00:55;;;;;;;5.30;3.25;;;;;;;16.01;56.99;101035.91;10458949;28;20579;-69
2022/08/10 05:05:57;;;;;;;4.47;3.17;;;;;;;16.31;55.88;101043.63;10458827;28;20072;-69
2022/08/10 05:11:02;;;;;;;5.82;2.90;;;;;;;15.99;57.16;101043.09;10458421;28;20044;-69
2022/08/10 05:16:03;;;;;;;3.47;2.42;;;;;;;16.15;56.60;101046.00;10459093;28;20049;-70
2022/08/10 05:21:05;;;;;;;3.08;2.22;;;;;;;16.25;56.18;101042.09;10458908;28;20044;-70
2022/08/10 05:26:07;;;;;;;3.58;2.45;;;;;;;16.36;56.18;101045.16;10457984;28;20045;-69
2022/08/10 05:31:08;;;;;;;2.47;1.98;;;;;;;16.51;55.15;101041.06;10458408;28;20051;-69
2022/08/10 05:36:16;;;;;;;2.65;2.45;;;;;;;17.03;54.02;101048.66;10458673;28;20456;-69
2022/08/10 05:41:18;;;;;;;4.63;2.65;;;;;;;16.94;54.32;101047.25;10461055;28;20041;-69
2022/08/10 05:46:20;;;;;;;7.95;2.38;;;;;;;16.82;54.84;101040.69;10459933;28;20048;-71
2022/08/10 05:51:22;;;;;;;4.00;2.70;;;;;;;17.03;54.26;101040.69;10458347;28;20053;-69
2022/08/10 05:56:23;;;;;;;3.83;2.63;;;;;;;17.29;53.55;101036.91;10457573;28;20099;-70
2022/08/10 06:01:26;;;;;;;4.82;2.67;;;;;;;17.38;53.15;101040.03;10457399;28;20072;-69
2022/08/10 06:06:33;;;;;;;3.08;2.78;;;;;;;17.92;51.92;101039.44;10457646;28;20045;-69
2022/08/10 06:11:36;;;;;;;3.05;2.50;;;;;;;18.17;51.13;101034.72;10456667;28;20051;-70
2022/08/10 06:16:59;;;;;;;2.80;2.45;;;;;;;19.19;48.40;101031.44;10456579;28;20037;-70
2022/08/10 06:22:01;;;;;;;3.15;2.22;;;;;;;19.52;47.99;101036.84;10458687;28;20041;-69
2022/08/10 06:27:03;;;;;;;3.50;2.38;;;;;;;20.23;45.97;101041.00;10465417;28;20041;-69
2022/08/10 06:32:07;;;;;;;7.75;2.30;;;;;;;20.38;45.60;101033.00;10465537;28;20047;-70
2022/08/10 06:37:13;;;;;;;3.70;2.03;;;;;;;20.94;44.24;101036.06;10447190;28;20111;-69
2022/08/10 06:42:39;;;;;;;5.00;2.30;;;;;;;21.24;43.33;101032.47;10464676;28;20041;-68
2022/08/10 06:47:54;;;;;;;3.55;2.70;;;;;;;21.58;42.57;101037.53;10465805;28;20075;-69
2022/08/10 06:52:58;;;;;;;4.78;2.10;;;;;;;21.78;42.43;101043.44;10467295;28;20470;-69
2022/08/10 06:58:02;;;;;;;4.05;2.05;;;;;;;22.32;41.05;101040.94;10465653;28;20074;-68
2022/08/10 07:03:10;;;;;;;3.97;2.22;;;;;;;22.42;40.92;101039.38;10465314;28;20053;-68
2022/08/10 07:08:16;;;;;;;4.82;2.47;;;;;;;22.05;41.79;101043.56;10465440;28;20486;-69
2022/08/10 07:13:19;;;;;;;4.90;1.92;;;;;;;22.27;41.69;101043.94;10464937;28;20041;-68
2022/08/10 07:18:43;;;;;;;3.47;2.05;;;;;;;22.40;41.25;101042.16;10465318;28;20080;-69
2022/08/10 07:23:46;;;;;;;6.47;2.78;;;;;;;22.48;41.21;101049.69;10463863;28;20505;-68
2022/08/10 07:29:01;;;;;;;11.32;2.72;;;;;;;22.80;41.40;101046.69;10464610;28;20048;-69
2022/08/10 07:34:06;;;;;;;2.90;2.53;;;;;;;23.03;40.22;101046.06;10445710;28;20048;-70
2022/08/10 07:39:09;;;;;;;12.55;2.60;;;;;;;22.74;40.81;101049.78;10461699;28;20128;-69
2022/08/10 07:44:13;;;;;;;6.68;3.00;;;;;;;22.99;40.79;101043.69;10463038;28;20044;-69
2022/08/10 07:49:21;;;;;;;7.13;2.90;;;;;;;23.42;40.14;101042.47;10462422;28;20048;-69
2022/08/10 07:54:26;;;;;;;5.05;2.50;;;;;;;23.75;39.30;101038.41;10444832;28;20052;-69
2022/08/10 07:59:36;;;;;;;3.28;2.40;;;;;;;23.86;39.40;101040.31;10463070;28;20037;-70
2022/08/10 08:04:38;;;;;;;6.03;2.20;;;;;;;23.98;38.76;101034.06;10462667;28;20049;-70
2022/08/10 08:09:41;;;;;;;4.95;2.30;;;;;;;24.29;38.58;101031.84;10462263;28;20120;-70
2022/08/10 08:14:59;;;;;;;3.30;1.80;;;;;;;24.21;38.55;101034.22;10462543;28;20049;-70
2022/08/10 08:20:23;;;;;;;4.10;2.00;;;;;;;24.49;37.80;101030.41;10444433;28;20043;-70
2022/08/10 08:25:29;;;;;;;4.68;2.53;;;;;;;25.19;36.54;101021.53;10444367;28;20051;-71
2022/08/10 08:30:31;;;;;;;4.70;1.88;;;;;;;25.15;36.40;101024.47;10461239;28;20037;-71
2022/08/10 08:35:33;;;;;;;4.00;1.92;;;;;;;25.36;36.54;101023.75;10461675;28;20067;-71
2022/08/10 08:40:36;;;;;;;4.38;1.52;;;;;;;25.71;35.83;101026.38;10460899;28;20047;-71
2022/08/10 08:46:02;;;;;;;2.75;1.50;;;;;;;25.94;34.90;101021.84;10460454;28;20435;-70
2022/08/10 08:51:04;;;;;;;3.90;1.67;;;;;;;25.90;34.92;101006.94;10444727;28;20500;-71
2022/08/10 08:56:27;;;;;;;3.00;1.55;;;;;;;25.82;34.79;101009.41;10460034;28;20049;-71
2022/08/10 09:01:44;;;;;;;7.18;1.98;;;;;;;26.08;34.74;101012.69;10441908;28;20037;-71
2022/08/10 09:07:06;;;;;;;5.93;1.58;;;;;;;26.72;33.94;101004.66;10442683;28;20056;-71
2022/08/10 09:12:34;;;;;;;3.65;1.40;;;;;;;26.55;34.18;100995.28;10460823;28;20048;-71
2022/08/10 09:18:04;;;;;;;5.05;1.80;;;;;;;27.28;33.24;100996.28;10458899;28;20083;-71
2022/08/10 09:23:35;;;;;;;4.57;1.65;;;;;;;27.62;32.35;100988.78;10459397;28;20041;-71
2022/08/10 09:29:00;;;;;;;2.42;1.40;;;;;;;28.54;31.47;100983.22;10440981;28;20464;-71
2022/08/10 09:34:28;;;;;;;4.90;1.27;;;;;;;28.76;30.03;100983.94;10458915;28;20124;-69
2022/08/10 09:39:58;;;;;;;2.90;1.30;;;;;;;28.70;30.17;100987.22;10443754;28;20040;-72
2022/08/10 09:45:50;;;;;;;1.50;1.23;;;;;;;29.45;29.03;100975.56;10457902;28;20085;-71
2022/08/10 09:51:10;;;;;;;3.55;1.80;;;;;;;29.50;28.83;100975.97;10448409;28;20053;-71
2022/08/10 09:56:46;;;;;;;3.97;1.60;;;;;;;28.96;29.18;100974.84;10441880;28;20033;-70
2022/08/10 10:02:26;;;;;;;2.70;1.35;;;;;;;30.25;27.68;100968.63;10457725;28;20037;-71
2022/08/10 10:07:28;;;;;;;4.03;1.50;;;;;;;30.33;27.31;100965.16;10330878;28;20070;-71
2022/08/10 10:12:52;;;;;;;3.88;1.17;;;;;;;30.47;27.96;100961.91;10353487;28;20474;-71
2022/08/10 10:18:15;;;;;;;2.10;1.10;;;;;;;30.17;26.66;100951.44;10356573;28;20061;-71
2022/08/10 10:23:45;;;;;;;3.58;1.45;;;;;;;30.23;26.15;100954.34;10388377;28;20054;-70
2022/08/10 10:29:31;;;;;;;2.75;1.27;;;;;;;30.58;26.73;100942.66;10372332;28;20172;-71
2022/08/10 10:34:52;;;;;;;3.25;1.10;;;;;;;31.46;25.99;100931.78;10371559;28;20063;-72
2022/08/10 10:39:56;;;;;;;3.20;1.40;;;;;;;31.22;25.35;100935.19;10371062;28;20537;-71
2022/08/10 10:45:18;;;;;;;2.08;1.30;;;;;;;31.43;25.81;100921.22;10456883;28;20410;-71
2022/08/10 10:50:38;;;;;;;3.83;1.40;;;;;;;31.64;24.93;100927.09;10456920;28;20052;-71
2022/08/10 10:55:52;;;;;;;2.60;1.30;;;;;;;31.27;25.96;100932.00;10457446;28;20048;-70
2022/08/10 11:01:20;;;;;;;3.03;1.50;;;;;;;30.23;27.13;100921.81;10457658;28;20494;-71
2022/08/10 11:06:59;;;;;;;4.00;1.40;;;;;;;29.99;26.96;100927.81;10457722;28;20047;-70
2022/08/10 11:12:22;;;;;;;3.45;1.50;;;;;;;30.04;27.12;100924.66;10464995;28;20045;-70
2022/08/10 11:17:41;;;;;;;4.45;1.25;;;;;;;30.47;27.34;100921.22;10464701;28;20049;-72
2022/08/10 11:22:58;;;;;;;;;;;;;;;30.29;27.20;100910.38;10446759;28;20057;-71
2022/08/10 11:28:09;;;;;;;1.95;1.45;;;;;;;30.62;27.08;100916.06;10449252;28;19928;-70
2022/08/10 11:33:45;;;;;;;4.75;1.40;;;;;;;29.82;26.84;100915.94;10452518;28;20045;-71
2022/08/10 11:39:31;;;;;;;6.50;2.08;;;;;;;29.50;27.08;100907.41;10464010;28;20041;-71
2022/08/10 11:44:50;;;;;;;2.10;1.20;;;;;;;29.35;27.02;100902.50;10446799;28;20462;-71
2022/08/10 11:50:00;;;;;;;3.47;1.27;;;;;;;29.22;27.38;100909.22;10448495;28;20041;-70
2022/08/10 11:55:11;;;;;;;1.83;1.45;;;;;;;29.24;27.10;100899.97;10446098;28;20049;-69
2022/08/10 12:00:17;;;;;;;3.08;1.40;;;;;;;30.04;27.07;100898.38;10464193;28;20037;-70
2022/08/10 12:05:26;;;;;;;2.00;1.40;;;;;;;30.63;25.48;100899.63;10445558;28;20053;-69
2022/08/10 12:10:49;;;;;;;4.80;1.30;;;;;;;30.60;25.12;100897.25;10463250;28;20147;-69
2022/08/10 12:15:54;;;;;;;5.45;1.40;;;;;;;30.31;25.45;100886.66;10462942;28;20052;-69
2022/08/10 12:21:00;;;;;;;5.75;1.45;;;;;;;31.27;24.54;100880.38;10462499;28;20041;-70
2022/08/10 12:26:24;;;;;;;5.22;1.30;;;;;;;31.18;24.25;100873.22;10461641;28;20045;-70
2022/08/10 12:31:37;;;;;;;2.67;1.15;;;;;;;31.45;23.95;100861.31;10463005;28;20037;-70
2022/08/10 12:36:41;;;;;;;2.42;1.30;;;;;;;32.58;23.63;100862.50;10461212;28;20053;-69
2022/08/10 12:41:56;;;;;;;3.20;1.33;;;;;;;32.23;23.70;100858.25;10461019;28;20048;-69
2022/08/10 12:47:02;;;;;;;1.88;1.30;;;;;;;32.00;24.17;100861.63;10461555;28;20051;-69
2022/08/10 12:52:23;;;;;;;3.47;1.42;;;;;;;30.82;25.41;100851.63;10459461;28;20033;-69
2022/08/10 12:57:27;;;;;;;4.05;1.30;;;;;;;29.97;26.44;100850.34;10461610;28;20045;-69
2022/08/10 13:02:33;;;;;;;3.00;1.40;;;;;;;28.66;27.24;100848.69;10461122;28;20051;-69
2022/08/10 13:07:38;;;;;;;3.53;1.60;;;;;;;28.49;27.74;100850.28;10442862;28;20049;-69
2022/08/10 13:13:01;;;;;;;4.95;1.40;;;;;;;28.55;27.96;100843.44;10492114;22;20036;-70
2022/08/10 13:18:07;;;;;;;3.75;1.40;;;;;;;28.66;27.46;100830.59;10541667;28;20055;-71
2022/08/10 13:23:23;;;;;;;1.23;1.00;;;;;;;28.52;27.58;100822.94;10541098;28;20511;-69
2022/08/10 13:28:37;;;;;;;3.47;1.40;;;;;;;28.73;27.13;100822.75;10540284;28;20046;-69
2022/08/10 13:33:47;;;;;;;3.03;1.55;;;;;;;28.71;27.66;100826.59;10537654;28;20082;-70
2022/08/10 13:39:10;;;;;;;3.00;1.50;;;;;;;28.81;27.23;100824.72;10541589;28;20035;-69
2022/08/10 13:44:31;;;;;;;3.15;1.58;;;;;;;28.94;27.35;100824.38;10540527;28;20040;-70
2022/08/10 13:49:45;;;;;;;6.00;1.23;;;;;;;29.06;27.76;100823.22;10540994;28;20036;-71
2022/08/10 13:54:48;;;;;;;3.03;1.52;;;;;;;28.53;27.55;100816.53;10522620;28;20071;-71
2022/08/10 13:59:53;;;;;;;3.03;1.42;;;;;;;28.90;27.56;100804.88;10540844;28;20040;-72
2022/08/10 14:05:23;;;;;;;1.00;1.00;;;;;;;29.01;26.41;100798.47;10522836;28;20043;-70
2022/08/10 14:10:27;;;;;;;2.15;1.25;;;;;;;28.98;25.94;100788.78;10541177;28;20131;-70
2022/08/10 14:15:49;;;;;;;1.83;1.20;;;;;;;28.70;27.15;100785.19;10522084;28;20082;-70
2022/08/10 14:20:53;;;;;;;1.83;1.30;;;;;;;28.57;27.65;100782.78;10541232;28;20040;-70
2022/08/10 14:26:01;;;;;;;3.95;1.50;;;;;;;28.38;27.27;100775.59;10540059;28;20036;-70
2022/08/10 14:31:18;;;;;;;4.13;1.43;;;;;;;28.78;26.32;100781.72;10505594;28;20489;-70
2022/08/10 14:36:30;;;;;;;4.00;1.40;;;;;;;28.74;26.61;100774.91;10540105;28;20413;-71
2022/08/10 14:41:35;;;;;;;2.55;1.27;;;;;;;29.07;25.96;100765.38;10539616;28;20040;-70
2022/08/10 14:46:58;;;;;;;;;;;;;;;29.05;26.10;100762.00;10548726;28;20048;-71
2022/08/10 14:52:07;;;;;;;1.63;1.25;;;;;;;28.69;26.94;100760.94;10530496;28;19969;-70
2022/08/10 14:57:11;;;;;;;3.28;1.40;;;;;;;28.97;26.76;100754.59;10547277;28;20051;-71
2022/08/10 15:02:17;;;;;;;7.20;1.40;;;;;;;28.79;26.27;100754.53;10547076;28;20074;-71
2022/08/10 15:07:43;;;;;;;3.17;1.20;;;;;;;28.72;26.75;100752.56;10546598;28;20083;-71
2022/08/10 15:12:46;;;;;;;1.67;1.10;;;;;;;28.42;27.26;100751.78;10546380;28;20527;-71
2022/08/10 15:17:51;;;;;;;3.17;1.27;;;;;;;28.39;27.17;100749.41;10546453;28;20040;-71
2022/08/10 15:22:58;;;;;;;3.35;1.08;;;;;;;28.38;26.88;100745.00;10546358;28;20546;-71
2022/08/10 15:28:09;;;;;;;4.28;1.50;;;;;;;28.13;27.63;100744.56;10545918;28;20047;-71
2022/08/10 15:39:01;;;;;;;4.03;1.25;;;;;;;27.67;27.43;100739.91;10545853;28;20119;-69
2022/08/10 15:44:04;;;;;;;2.63;1.40;;;;;;;27.69;27.71;100737.91;10546416;28;20493;-70
2022/08/10 15:49:16;;;;;;;1.20;1.10;;;;;;;27.59;27.81;100727.09;10545980;28;20122;-70
2022/08/10 15:54:24;;;;;;;;;;;;;;;27.57;27.69;100729.06;10526574;28;20493;-69
2022/08/10 15:59:46;;;;;;;2.60;1.20;;;;;;;27.52;28.51;100723.25;10526751;28;20010;-71
2022/08/10 16:04:58;;;;;;;6.53;1.40;;;;;;;27.81;28.07;100717.03;10527428;28;20051;-71
2022/08/10 16:10:06;;;;;;;5.75;1.30;;;;;;;27.72;28.08;100710.66;10544918;28;20424;-70
2022/08/10 16:15:30;;;;;;;3.90;1.35;;;;;;;27.77;27.66;100707.50;10526229;28;20119;-70
2022/08/10 16:20:35;;;;;;;2.05;1.27;;;;;;;27.61;28.12;100706.19;10544391;28;20386;-70
2022/08/10 16:26:00;;;;;;;1.75;1.45;;;;;;;27.55;27.88;100701.38;10526003;28;20055;-70
2022/08/10 16:31:19;;;;;;;1.60;1.23;;;;;;;27.60;28.20;100693.69;10543959;28;20527;-70
2022/08/10 16:36:36;;;;;;;3.70;1.45;;;;;;;27.87;27.67;100689.44;10509791;28;20061;-70
2022/08/10 16:41:41;;;;;;;5.70;1.30;;;;;;;27.77;27.87;100692.16;10544602;28;20482;-70
2022/08/10 16:47:05;;;;;;;1.50;1.00;;;;;;;27.72;27.39;100688.16;10543297;28;20048;-70
2022/08/10 16:52:12;;;;;;;2.25;1.60;;;;;;;27.98;27.21;100685.69;10543022;28;20036;-69
2022/08/10 16:57:16;;;;;;;3.45;1.90;;;;;;;27.85;27.49;100684.19;10509727;28;20089;-69
2022/08/10 17:02:18;;;;;;;1.02;1.00;;;;;;;27.96;27.77;100683.16;10544461;28;20357;-68
2022/08/10 17:07:26;;;;;;;2.95;1.15;;;;;;;27.85;27.91;100681.47;10542196;28;20044;-69
2022/08/10 17:12:33;;;;;;;2.47;1.30;;;;;;;27.82;27.79;100675.50;10544215;28;20044;-69
2022/08/10 17:17:39;;;;;;;1.83;1.10;;;;;;;27.77;27.51;100678.66;10543001;28;20055;-69
2022/08/10 17:22:42;;;;;;;6.82;1.58;;;;;;;27.46;28.49;100679.78;10542933;28;20044;-69
2022/08/10 17:27:45;;;;;;;3.10;1.30;;;;;;;27.44;28.33;100685.28;10541895;28;20044;-68
2022/08/10 17:33:14;;;;;;;4.78;1.23;;;;;;;27.32;28.41;100687.28;10541810;28;20071;-68
2022/08/10 17:38:24;;;;;;;3.28;1.20;;;;;;;26.96;29.14;100688.78;10541187;28;20394;-68
2022/08/10 17:43:27;;;;;;;2.35;1.13;;;;;;;26.90;29.10;100683.91;10542018;28;20086;-68
2022/08/10 17:48:50;;;;;;;1.60;1.33;;;;;;;26.80;29.67;100686.59;10540890;28;20063;-68
2022/08/10 17:53:57;;;;;;;1.55;1.00;;;;;;;26.54;30.04;100683.53;10541275;28;20040;-68
2022/08/10 17:59:09;;;;;;;2.53;1.40;;;;;;;26.54;29.72;100688.06;10540203;28;20036;-68
2022/08/10 18:04:19;;;;;;;2.15;1.20;;;;;;;26.10;30.63;100680.16;10541456;28;20050;-68
2022/08/10 18:09:46;;;;;;;1.50;1.30;;;;;;;25.78;31.26;100680.22;10540312;28;20040;-68
2022/08/10 18:14:51;;;;;;;3.03;1.50;;;;;;;25.59;31.90;100685.44;10539617;28;20050;-68
2022/08/10 18:19:58;;;;;;;3.05;1.73;;;;;;;25.42;32.06;100693.09;10539095;28;20124;-68
2022/08/10 18:25:00;;;;;;;2.67;1.20;;;;;;;25.16;32.17;100697.94;10538879;28;20040;-68
2022/08/10 18:30:06;;;;;;;7.50;1.90;;;;;;;25.13;34.34;100708.94;10539181;28;20043;-67
2022/08/10 18:35:09;;;;;;;2.90;1.40;;;;;;;25.19;32.11;100709.41;10539419;28;20097;-70
2022/08/10 18:40:11;;;;;;;2.45;1.40;;;;;;;25.41;32.09;100703.97;10539528;28;20102;-68
2022/08/10 18:45:19;;;;;;;3.10;1.48;;;;;;;25.36;32.50;100717.81;10538634;28;20048;-68
2022/08/10 18:50:31;;;;;;;2.50;1.58;;;;;;;25.37;32.66;100726.75;10539628;28;20041;-69
2022/08/10 18:55:37;;;;;;;2.72;1.40;;;;;;;25.31;33.16;100727.25;10539535;28;20062;-69
2022/08/10 19:01:17;;;;;;;2.80;1.50;;;;;;;25.00;33.75;100732.41;10539974;28;20546;-69
2022/08/10 19:06:49;;;;;;;3.03;1.55;;;;;;;24.87;34.08;100729.00;10520295;28;20489;-68
2022/08/10 19:12:03;;;;;;;2.58;1.90;;;;;;;24.89;34.23;100732.44;10541876;23;20344;-69
2022/08/10 19:17:21;;;;;;;1.85;1.52;;;;;;;24.65;34.83;100738.78;10453282;28;20068;-68
2022/08/10 19:22:31;;;;;;;2.20;1.42;;;;;;;24.37;35.74;100736.59;10460328;28;20036;-68
2022/08/10 19:27:37;;;;;;;2.25;1.60;;;;;;;24.23;36.41;100729.56;10458832;28;20045;-70
2022/08/10 19:32:54;;;;;;;4.78;1.88;;;;;;;24.26;36.38;100734.72;10446776;28;20048;-69
2022/08/10 19:38:10;;;;;;;3.65;2.25;;;;;;;23.84;37.12;100738.88;10465685;28;20116;-69
2022/08/10 19:43:28;;;;;;;3.47;2.67;;;;;;;23.61;38.15;100735.22;10467810;28;20409;-69
2022/08/10 19:49:08;;;;;;;4.97;4.57;;;;;;;23.49;38.66;100736.13;10463821;28;20041;-69
2022/08/10 19:54:25;;;;;;;8.27;7.55;;;;;;;23.37;39.06;100727.16;10463852;28;20056;-69
2022/08/10 19:59:49;;;;;;;7.05;5.68;;;;;;;23.37;39.14;100733.41;10463431;28;20043;-68
2022/08/10 20:05:39;;;;;;;4.47;3.00;;;;;;;22.92;39.67;100737.59;10466313;28;20049;-68
2022/08/10 20:11:33;;;;;;;3.33;3.03;;;;;;;22.59;40.54;100744.38;10448537;28;20041;-68
2022/08/10 20:16:48;;;;;;;4.38;2.60;;;;;;;22.44;40.54;100734.72;10414417;28;20130;-68
2022/08/10 20:21:59;;;;;;;3.25;2.53;;;;;;;22.38;40.85;100738.69;10444592;28;20045;-69
2022/08/10 20:27:10;;;;;;;3.05;2.40;;;;;;;22.24;41.28;100737.97;10464948;28;20510;-69
2022/08/10 20:32:42;;;;;;;3.60;2.13;;;;;;;21.99;41.58;100725.34;10462759;28;20041;-68
2022/08/10 20:37:52;;;;;;;3.38;2.20;;;;;;;21.86;42.10;100730.69;10462119;28;20041;-68
2022/08/10 20:43:27;;;;;;;3.47;2.33;;;;;;;21.91;42.15;100729.44;10461563;28;20051;-72
2022/08/10 20:48:46;;;;;;;4.03;2.60;;;;;;;21.63;42.79;100730.41;10462897;28;20041;-72
2022/08/10 20:53:56;;;;;;;2.55;2.10;;;;;;;21.47;43.00;100734.19;10462058;28;20037;-71
2022/08/10 20:59:31;;;;;;;3.47;2.78;;;;;;;21.30;43.20;100743.31;10442959;28;20072;-71
2022/08/10 21:05:16;;;;;;;4.50;2.47;;;;;;;21.32;43.82;100746.78;10461834;28;20112;-73
2022/08/10 21:10:39;;;;;;;2.78;2.08;;;;;;;21.38;44.63;100744.56;10414236;28;20053;-71
2022/08/10 21:15:44;;;;;;;4.50;2.78;;;;;;;21.41;44.01;100744.34;10443660;28;20052;-72
2022/08/10 21:21:31;;;;;;;4.05;2.22;;;;;;;20.98;44.54;100745.38;10460924;28;20044;-71
2022/08/10 23:01:38;;;;;;;5.18;3.80;;;;;;;19.17;50.18;100766.84;10459243;28;20044;-71
2022/08/10 23:06:38;;;;;;;5.47;4.20;;;;;;;19.11;49.94;100775.16;10464126;28;20045;-71
2022/08/10 23:11:42;;;;;;;3.75;2.95;;;;;;;18.88;50.42;100768.44;10465470;28;20047;-70
2022/08/10 23:22:15;;;;;;;3.50;3.08;;;;;;;18.62;50.76;100772.47;10467504;28;20094;-70
2022/08/10 23:27:20;;;;;;;2.83;2.50;;;;;;;18.68;50.41;100764.13;10448487;28;20387;-71
2022/08/10 23:32:44;;;;;;;5.28;3.28;;;;;;;18.53;50.64;100765.81;10465177;28;20044;-71
2022/08/10 23:37:46;;;;;;;2.40;2.20;;;;;;;18.53;50.83;100767.63;10464483;28;20040;-71
2022/08/10 23:42:50;;;;;;;2.83;2.45;;;;;;;18.51;50.77;100770.38;10447319;28;20417;-71
2022/08/10 23:47:56;;;;;;;2.85;2.42;;;;;;;18.41;50.82;100763.81;10467542;28;20041;-70
2022/08/10 23:53:03;;;;;;;5.10;3.13;;;;;;;18.32;50.96;100754.50;10446307;28;20045;-70
2022/08/10 23:58:17;;;;;;;3.22;2.15;;;;;;;18.26;51.24;100761.97;10446379;28;20045;-70
